createdAt,value
2022-11-09T00:01:02.931Z,76.83
2022-11-09T00:06:04.241Z,76.63
2022-11-09T00:11:07.775Z,76.13
2022-11-09T00:16:11.369Z,75.95
2022-11-09T00:21:21.414Z,75.97
2022-11-09T00:26:23.392Z,77.91
2022-11-09T00:31:25.002Z,80.63
2022-11-09T00:36:28.066Z,84.24
2022-11-09T00:41:29.452Z,87.58
2022-11-09T00:46:31.084Z,88.21
2022-11-09T00:51:32.593Z,90.02
2022-11-09T00:56:33.857Z,91.67
2022-11-09T01:01:35.290Z,93.39
2022-11-09T01:06:36.688Z,94.54
2022-11-09T01:11:38.216Z,94.85
2022-11-09T01:16:39.519Z,96.14
2022-11-09T01:21:41.102Z,96.49
2022-11-09T01:26:42.423Z,98.10
2022-11-09T01:31:43.729Z,97.99
2022-11-09T01:36:44.994Z,97.63
2022-11-09T01:41:47.000Z,97.94
2022-11-09T01:46:51.005Z,99.15
2022-11-09T01:52:04.348Z,99.89
2022-11-09T01:57:10.868Z,100.00
2022-11-09T02:02:12.855Z,100.00
2022-11-09T02:07:14.723Z,100.00
2022-11-09T02:12:18.069Z,100.00
2022-11-09T02:17:19.999Z,100.00
2022-11-09T02:22:21.634Z,100.00
2022-11-09T02:27:24.154Z,100.00
2022-11-09T02:32:28.889Z,100.00
2022-11-09T02:37:37.684Z,100.00
2022-11-09T02:42:39.164Z,100.00
2022-11-09T02:47:40.517Z,100.00
2022-11-09T02:52:41.821Z,100.00
2022-11-09T02:57:43.171Z,100.00
2022-11-09T03:02:44.551Z,100.00
2022-11-09T03:07:45.873Z,100.00
2022-11-09T03:12:47.197Z,100.00
2022-11-09T03:17:48.473Z,100.00
2022-11-09T03:22:49.743Z,100.00
2022-11-09T03:27:57.268Z,100.00
2022-11-09T03:33:09.951Z,100.00
2022-11-09T03:38:11.315Z,100.00
2022-11-09T03:43:12.720Z,100.00
2022-11-09T03:48:14.028Z,100.00
2022-11-09T03:53:15.366Z,100.00
2022-11-09T03:58:16.788Z,100.00
2022-11-09T04:03:18.253Z,100.00
2022-11-09T04:08:19.711Z,100.00
2022-11-09T04:13:21.165Z,100.00
2022-11-09T04:18:22.693Z,100.00
2022-11-09T04:23:23.986Z,100.00
2022-11-09T04:28:25.634Z,100.00
2022-11-09T04:33:26.980Z,100.00
2022-11-09T04:38:28.407Z,100.00
2022-11-09T04:43:29.910Z,100.00
2022-11-09T04:48:32.687Z,100.00
2022-11-09T04:53:35.032Z,100.00
2022-11-09T04:58:36.342Z,100.00
2022-11-09T05:03:37.979Z,100.00
2022-11-09T05:08:39.308Z,100.00
2022-11-09T05:13:40.603Z,100.00
2022-11-09T05:18:42.020Z,100.00
2022-11-09T05:23:58.863Z,100.00
2022-11-09T05:29:02.512Z,100.00
2022-11-09T05:34:05.210Z,100.00
2022-11-09T05:39:06.537Z,100.00
2022-11-09T05:44:07.915Z,100.00
2022-11-09T05:49:09.277Z,100.00
2022-11-09T05:54:10.629Z,100.00
2022-11-09T05:59:12.077Z,100.00
2022-11-09T06:04:13.366Z,100.00
2022-11-09T06:09:14.613Z,100.00
2022-11-09T06:14:16.034Z,100.00
2022-11-09T06:19:17.334Z,100.00
2022-11-09T06:24:18.628Z,100.00
2022-11-09T06:29:20.051Z,100.00
2022-11-09T06:34:21.359Z,100.00
2022-11-09T06:39:23.171Z,100.00
2022-11-09T06:44:24.453Z,100.00
2022-11-09T06:49:25.743Z,100.00
2022-11-09T06:54:27.975Z,100.00
2022-11-09T06:59:29.471Z,100.00
2022-11-09T07:04:30.736Z,100.00
2022-11-09T07:09:33.270Z,100.00
2022-11-09T07:14:34.581Z,100.00
2022-11-09T07:19:36.923Z,100.00
2022-11-09T07:24:38.178Z,100.00
2022-11-09T07:29:39.450Z,100.00
2022-11-09T07:34:40.746Z,100.00
2022-11-09T07:39:42.069Z,100.00
2022-11-09T07:44:43.358Z,100.00
2022-11-09T07:49:45.010Z,100.00
2022-11-09T07:54:51.832Z,100.00
2022-11-09T07:59:53.579Z,100.00
2022-11-09T08:04:54.939Z,100.00
2022-11-09T08:09:56.276Z,100.00
2022-11-09T08:14:57.654Z,100.00
2022-11-09T08:19:58.928Z,100.00
2022-11-09T08:25:00.400Z,100.00
2022-11-09T08:30:01.711Z,100.00
2022-11-09T08:35:03.748Z,100.00
2022-11-09T08:40:06.510Z,100.00
2022-11-09T08:45:08.402Z,100.00
2022-11-09T08:50:11.160Z,100.00
2022-11-09T08:55:12.511Z,100.00
2022-11-09T09:00:14.759Z,100.00
2022-11-09T09:05:16.986Z,100.00
2022-11-09T09:10:18.921Z,100.00
2022-11-09T09:15:21.595Z,100.00
2022-11-09T09:20:22.973Z,95.49
2022-11-09T09:25:24.684Z,95.93
2022-11-09T09:30:26.023Z,95.85
2022-11-09T09:35:28.473Z,97.43
2022-11-09T09:40:48.322Z,97.74
2022-11-09T09:45:52.924Z,97.68
2022-11-09T09:51:01.257Z,97.15
2022-11-09T09:56:10.856Z,96.45
2022-11-09T10:01:20.999Z,93.41
2022-11-09T10:06:58.923Z,87.85
2022-11-09T10:12:15.868Z,81.27
2022-11-09T10:17:35.507Z,74.89
2022-11-09T10:23:03.282Z,67.89
2022-11-09T10:28:13.251Z,56.70
2022-11-09T10:33:21.344Z,52.60
2022-11-09T10:38:28.970Z,56.53
2022-11-09T10:43:30.305Z,59.40
2022-11-09T10:48:40.122Z,57.30
2022-11-09T10:53:41.443Z,50.01
2022-11-09T10:59:01.049Z,45.87
2022-11-09T11:04:20.790Z,53.23
2022-11-09T11:09:23.348Z,57.15
2022-11-09T11:14:36.336Z,60.36
2022-11-09T11:19:44.575Z,58.92
2022-11-09T11:24:55.069Z,60.93
2022-11-09T11:30:05.446Z,65.29
2022-11-09T11:35:16.433Z,69.45
2022-11-09T11:40:50.611Z,72.78
2022-11-09T11:46:08.722Z,74.57
2022-11-09T11:51:19.105Z,76.81
2022-11-09T11:56:22.664Z,76.24
2022-11-09T12:01:50.563Z,70.69
2022-11-09T12:07:19.766Z,70.24
2022-11-09T12:12:34.141Z,66.37
2022-11-09T12:17:59.009Z,67.55
2022-11-09T12:23:25.435Z,68.37
2022-11-09T12:28:29.830Z,69.04
2022-11-09T12:33:58.534Z,67.01
2022-11-09T12:39:25.975Z,60.79
2022-11-09T12:44:37.604Z,62.07
2022-11-09T12:49:42.546Z,63.54
2022-11-09T12:54:49.716Z,66.55
2022-11-09T12:59:53.328Z,69.17
2022-11-09T13:04:57.313Z,70.17
2022-11-09T13:10:01.694Z,72.49
2022-11-09T13:15:24.781Z,73.76
2022-11-09T13:25:57.567Z,74.70
2022-11-09T13:31:04.188Z,75.33
2022-11-09T13:36:08.296Z,74.96
2022-11-09T13:41:28.321Z,75.56
2022-11-09T13:46:36.255Z,76.33
2022-11-09T13:51:48.017Z,76.75
2022-11-09T13:56:50.422Z,76.86
2022-11-09T14:01:54.522Z,77.57
2022-11-09T14:07:01.431Z,78.07
2022-11-09T14:12:28.057Z,77.97
2022-11-09T14:17:45.280Z,78.49
2022-11-09T14:22:46.655Z,79.28
2022-11-09T14:27:57.308Z,79.59
2022-11-09T14:32:59.130Z,80.35
2022-11-09T14:38:14.415Z,81.43
2022-11-09T14:43:29.168Z,81.70
2022-11-09T14:48:32.339Z,83.89
2022-11-09T14:53:36.657Z,86.47
2022-11-09T14:58:42.602Z,88.49
2022-11-09T15:03:44.872Z,89.61
2022-11-09T15:08:58.616Z,90.04
2022-11-09T15:14:00.190Z,89.93
2022-11-09T15:19:01.583Z,90.03
2022-11-09T15:24:08.560Z,89.79
2022-11-09T15:29:40.761Z,89.64
2022-11-09T15:34:51.141Z,89.95
2022-11-09T15:39:52.690Z,89.48
2022-11-09T15:44:56.949Z,89.05
2022-11-09T15:49:59.559Z,89.26
2022-11-09T15:55:00.845Z,89.04
2022-11-09T16:00:07.820Z,88.32
2022-11-09T16:05:13.084Z,88.26
2022-11-09T16:10:15.429Z,88.52
2022-11-09T16:15:16.755Z,88.89
2022-11-09T16:20:19.584Z,89.37
2022-11-09T16:25:21.646Z,89.78
2022-11-09T16:30:22.958Z,89.46
2022-11-09T16:35:27.312Z,89.50
2022-11-09T16:40:31.616Z,89.26
2022-11-09T16:45:33.873Z,88.88
2022-11-09T16:50:35.355Z,87.74
2022-11-09T16:55:39.675Z,86.88
2022-11-09T17:01:09.744Z,86.04
2022-11-09T17:06:11.237Z,86.36
2022-11-09T17:11:14.894Z,86.08
2022-11-09T17:16:20.845Z,85.62
2022-11-09T17:21:24.253Z,85.86
2022-11-09T17:26:26.467Z,85.88
2022-11-09T17:31:27.819Z,86.18
2022-11-09T17:36:56.798Z,86.26
2022-11-09T17:41:52.020Z,86.68
2022-11-09T17:46:55.752Z,86.71
2022-11-09T17:51:57.639Z,87.12
2022-11-09T17:57:00.864Z,87.20
2022-11-09T18:02:02.205Z,88.00
2022-11-09T18:07:03.670Z,88.33
2022-11-09T18:12:05.353Z,88.35
2022-11-09T18:17:06.626Z,88.07
2022-11-09T18:22:12.512Z,88.30
2022-11-09T18:27:14.236Z,88.19
2022-11-09T18:32:15.975Z,87.70
2022-11-09T18:37:17.249Z,87.44
2022-11-09T18:42:18.551Z,87.80
2022-11-09T18:47:20.430Z,88.02
2022-11-09T18:52:21.856Z,87.83
2022-11-09T18:57:23.144Z,87.81
2022-11-09T19:02:24.473Z,87.46
2022-11-09T19:07:25.762Z,87.62
2022-11-09T19:12:29.416Z,87.02
2022-11-09T19:17:30.754Z,86.88
2022-11-09T19:22:36.451Z,86.72
2022-11-09T19:27:37.728Z,86.47
2022-11-09T19:32:39.189Z,86.28
2022-11-09T19:37:40.542Z,86.42
2022-11-09T19:42:42.092Z,86.41
2022-11-09T19:47:43.538Z,86.54
2022-11-09T19:52:44.972Z,86.65
2022-11-09T19:57:46.332Z,86.68
2022-11-09T20:02:47.614Z,86.77
2022-11-09T20:07:48.900Z,86.70
2022-11-09T20:12:50.588Z,86.89
2022-11-09T20:17:51.871Z,87.07
2022-11-09T20:22:53.160Z,87.23
2022-11-09T20:27:54.517Z,87.61
2022-11-09T20:32:55.968Z,87.10
2022-11-09T20:37:57.257Z,87.06
2022-11-09T20:42:58.740Z,87.60
2022-11-09T20:48:19.490Z,87.25
2022-11-09T20:53:21.279Z,87.14
2022-11-09T20:58:24.035Z,87.56
2022-11-09T21:03:26.747Z,86.98
2022-11-09T21:08:28.197Z,87.48
2022-11-09T21:13:29.903Z,87.90
2022-11-09T21:18:31.247Z,88.00
2022-11-09T21:23:51.348Z,88.54
2022-11-09T21:29:10.994Z,89.04
2022-11-09T21:34:12.332Z,89.05
2022-11-09T21:39:13.664Z,89.64
2022-11-09T21:44:15.223Z,89.88
2022-11-09T21:49:16.567Z,90.59
2022-11-09T21:54:17.900Z,90.65
2022-11-09T21:59:19.545Z,91.46
2022-11-09T22:04:20.819Z,91.80
2022-11-09T22:09:22.084Z,92.07
2022-11-09T22:14:42.051Z,92.36
2022-11-09T22:20:02.370Z,92.78
2022-11-09T22:25:04.183Z,92.93
2022-11-09T22:30:06.361Z,92.81
2022-11-09T22:35:08.155Z,93.43
2022-11-09T22:40:10.060Z,93.69
2022-11-09T22:45:11.332Z,93.26
2022-11-09T22:50:12.589Z,93.21
2022-11-09T22:55:14.056Z,93.24
2022-11-09T23:00:16.254Z,92.53
2022-11-09T23:05:19.913Z,92.72
2022-11-09T23:10:21.180Z,93.37
2022-11-09T23:15:22.491Z,93.36
2022-11-09T23:20:23.752Z,93.10
2022-11-09T23:25:43.691Z,93.42
2022-11-09T23:30:45.102Z,93.84
2022-11-09T23:35:46.720Z,93.65
2022-11-09T23:40:49.555Z,93.19
2022-11-09T23:45:50.849Z,93.34
2022-11-09T23:50:52.244Z,93.47
2022-11-09T23:55:54.297Z,93.21
